Valdez, AK

9:07 PM AKDT on April 25, 2017 (GMT -0800)
Valdez Harbor | | Change Station

Elev 1 ft 61.13 °N, 146.35 °W | Updated 4 seconds ago

Overcast
Overcast
45.1 °F
Feels Like 45 °F
N
2.0
Wind Variable Wind from WSW
Gusts 2.0 mph

Today
High -- | Low -- °F
--% Chance of Precip.
Yesterday
High -- | Low -- °F
Precip. -- in
Pressure 29.65 in
Visibility 10.0 miles
Clouds Few 1500 ft
Mostly Cloudy 6500 ft
Mostly Cloudy 15000 ft
Windchill 45 °F
Dew Point 41 °F
Humidity 86%
Rainfall 0.15 in
Snow Depth Not available.
5:53 AM 9:35 PM
Waning Crescent, 0% visible
METAR PAVD 260456Z 00000KT 10SM FEW015 BKN065 BKN150 07/03 A2965 RMK AO1 0447Z WEA: -RA PCPN VRY LGT AND INTMT TWR WND 00000KT
Pressure 29.65 in
Visibility 10.0 miles
Clouds Few 1500 ft
Mostly Cloudy 6500 ft
Mostly Cloudy 15000 ft
Windchill 45 °F
Dew Point 41 °F
Humidity 86%
Rainfall 0.15 in
Snow Depth Not available.
5:53 AM 9:35 PM
Waning Crescent, 0% visible
METAR PAVD 260456Z 00000KT 10SM FEW015 BKN065 BKN150 07/03 A2965 RMK AO1 0447Z WEA: -RA PCPN VRY LGT AND INTMT TWR WND 00000KT

Get Severe Weather Alerts

Thanks for signing up!

Be on the lookout for a verification email in your inbox.

You'll start receiving the daily forecast at 8 AM.

×

10-Day Weather Forecast

Almanac

Astronomy

Apr. 25, 2017 Rise Set
Actual Time
Civil Twilight
Nautical Twilight
Astronomical Twilight
Moon
Length of Visible Light
Length of Day
Tomorrow will be .
, % of the Moon is Illuminated

Today's Extremes

State Highs State Lows

Community

WunderPhotos

WunderBlog® & News

Nearby

Air Quality

  Air Quality AQ Index Pollutant
Not available.

Snow Depth

Station Depth Elevation

Earthquake Activity

City Distance Mag. Time & Date
Minimum magnitude displayed is 2.5.

Coastal Water Temperatures

Place Temperature

Stations

Nearby Weather Stations

Station Location Temp. Windchill Dew Point Humidity Wind Precip. Elev Updated Type
                   

Watches & Warnings

There are currently no watches in effect.